sensor_id;sensor_type;location;lat;lon;timestamp;P1;durP1;ratioP1;P2;durP2;ratioP2
60243;SDS011;46106;51.468;5.814;2022-09-24T00:01:32;45.60;;;22.38;;
60243;SDS011;46106;51.468;5.814;2022-09-24T00:04:04;48.92;;;23.08;;
60243;SDS011;46106;51.468;5.814;2022-09-24T00:06:36;43.67;;;23.45;;
60243;SDS011;46106;51.468;5.814;2022-09-24T00:09:10;44.25;;;22.52;;
60243;SDS011;46106;51.468;5.814;2022-09-24T00:11:48;44.90;;;22.92;;
60243;SDS011;46106;51.468;5.814;2022-09-24T00:14:23;48.45;;;23.45;;
60243;SDS011;46106;51.468;5.814;2022-09-24T00:16:53;44.38;;;23.63;;
60243;SDS011;46106;51.468;5.814;2022-09-24T00:19:34;48.15;;;22.05;;
60243;SDS011;46106;51.468;5.814;2022-09-24T00:22:04;42.22;;;21.25;;
60243;SDS011;46106;51.468;5.814;2022-09-24T00:24:37;44.47;;;22.65;;
60243;SDS011;46106;51.468;5.814;2022-09-24T00:27:21;44.20;;;21.80;;
60243;SDS011;46106;51.468;5.814;2022-09-24T00:30:07;41.42;;;21.33;;
60243;SDS011;46106;51.468;5.814;2022-09-24T00:32:38;41.45;;;22.33;;
60243;SDS011;46106;51.468;5.814;2022-09-24T00:35:07;42.13;;;21.67;;
60243;SDS011;46106;51.468;5.814;2022-09-24T00:37:35;43.13;;;21.95;;
60243;SDS011;46106;51.468;5.814;2022-09-24T00:40:11;45.40;;;23.52;;
60243;SDS011;46106;51.468;5.814;2022-09-24T00:42:40;46.55;;;22.30;;
60243;SDS011;46106;51.468;5.814;2022-09-24T00:45:09;47.58;;;23.55;;
60243;SDS011;46106;51.468;5.814;2022-09-24T00:47:45;45.65;;;23.27;;
60243;SDS011;46106;51.468;5.814;2022-09-24T00:53:09;48.17;;;22.77;;
60243;SDS011;46106;51.468;5.814;2022-09-24T00:55:48;48.20;;;24.95;;
60243;SDS011;46106;51.468;5.814;2022-09-24T00:58:28;50.63;;;22.25;;
60243;SDS011;46106;51.468;5.814;2022-09-24T01:01:03;50.08;;;23.38;;
60243;SDS011;46106;51.468;5.814;2022-09-24T01:03:39;47.75;;;23.50;;
60243;SDS011;46106;51.468;5.814;2022-09-24T01:06:09;49.03;;;25.05;;
60243;SDS011;46106;51.468;5.814;2022-09-24T01:08:45;65.10;;;25.50;;
60243;SDS011;46106;51.468;5.814;2022-09-24T01:17:15;47.08;;;23.75;;
60243;SDS011;46106;51.468;5.814;2022-09-24T01:22:53;50.05;;;25.23;;
60243;SDS011;46106;51.468;5.814;2022-09-24T01:32:05;51.08;;;24.58;;
60243;SDS011;46106;51.468;5.814;2022-09-24T01:35:01;49.00;;;23.50;;
60243;SDS011;46106;51.468;5.814;2022-09-24T01:37:55;52.72;;;24.40;;
60243;SDS011;46106;51.468;5.814;2022-09-24T01:40:41;51.28;;;25.55;;
60243;SDS011;46106;51.468;5.814;2022-09-24T01:43:21;58.80;;;26.13;;
60243;SDS011;46106;51.468;5.814;2022-09-24T01:45:50;54.88;;;27.30;;
60243;SDS011;46106;51.468;5.814;2022-09-24T01:48:24;52.97;;;25.67;;
60243;SDS011;46106;51.468;5.814;2022-09-24T01:51:04;53.55;;;27.10;;
60243;SDS011;46106;51.468;5.814;2022-09-24T01:53:41;51.07;;;26.67;;
60243;SDS011;46106;51.468;5.814;2022-09-24T01:56:13;58.53;;;27.17;;
60243;SDS011;46106;51.468;5.814;2022-09-24T01:58:50;60.20;;;29.20;;
60243;SDS011;46106;51.468;5.814;2022-09-24T02:01:27;54.67;;;28.58;;
60243;SDS011;46106;51.468;5.814;2022-09-24T02:04:04;61.60;;;28.40;;
60243;SDS011;46106;51.468;5.814;2022-09-24T02:06:48;58.47;;;27.83;;
60243;SDS011;46106;51.468;5.814;2022-09-24T02:12:18;61.25;;;28.02;;
60243;SDS011;46106;51.468;5.814;2022-09-24T02:14:56;66.80;;;30.33;;
60243;SDS011;46106;51.468;5.814;2022-09-24T02:17:53;58.03;;;28.52;;
60243;SDS011;46106;51.468;5.814;2022-09-24T02:20:35;66.15;;;30.17;;
60243;SDS011;46106;51.468;5.814;2022-09-24T02:23:06;59.97;;;28.85;;
60243;SDS011;46106;51.468;5.814;2022-09-24T02:25:51;62.72;;;30.23;;
60243;SDS011;46106;51.468;5.814;2022-09-24T02:28:29;63.55;;;31.70;;
60243;SDS011;46106;51.468;5.814;2022-09-24T02:31:12;73.75;;;33.22;;
60243;SDS011;46106;51.468;5.814;2022-09-24T02:33:46;64.38;;;32.55;;
60243;SDS011;46106;51.468;5.814;2022-09-24T02:36:35;88.43;;;36.72;;
60243;SDS011;46106;51.468;5.814;2022-09-24T02:39:06;74.05;;;35.95;;
60243;SDS011;46106;51.468;5.814;2022-09-24T02:41:41;77.63;;;36.63;;
60243;SDS011;46106;51.468;5.814;2022-09-24T02:44:16;69.47;;;35.60;;
60243;SDS011;46106;51.468;5.814;2022-09-24T02:46:46;79.03;;;38.53;;
60243;SDS011;46106;51.468;5.814;2022-09-24T02:49:14;81.40;;;39.20;;
60243;SDS011;46106;51.468;5.814;2022-09-24T02:51:47;86.82;;;40.25;;
60243;SDS011;46106;51.468;5.814;2022-09-24T02:54:18;81.18;;;38.55;;
60243;SDS011;46106;51.468;5.814;2022-09-24T02:56:46;78.60;;;36.95;;
60243;SDS011;46106;51.468;5.814;2022-09-24T02:59:14;83.45;;;40.67;;
60243;SDS011;46106;51.468;5.814;2022-09-24T03:01:45;82.05;;;40.40;;
60243;SDS011;46106;51.468;5.814;2022-09-24T03:04:17;79.15;;;37.85;;
60243;SDS011;46106;51.468;5.814;2022-09-24T03:06:46;80.32;;;39.17;;
60243;SDS011;46106;51.468;5.814;2022-09-24T03:09:18;84.32;;;39.88;;
60243;SDS011;46106;51.468;5.814;2022-09-24T03:11:45;81.88;;;39.20;;
60243;SDS011;46106;51.468;5.814;2022-09-24T03:14:24;90.40;;;40.70;;
60243;SDS011;46106;51.468;5.814;2022-09-24T03:16:50;83.93;;;41.17;;
60243;SDS011;46106;51.468;5.814;2022-09-24T03:19:16;87.82;;;39.97;;
60243;SDS011;46106;51.468;5.814;2022-09-24T03:21:54;105.95;;;42.45;;
60243;SDS011;46106;51.468;5.814;2022-09-24T03:24:21;85.93;;;40.60;;
60243;SDS011;46106;51.468;5.814;2022-09-24T03:26:49;81.88;;;39.95;;
60243;SDS011;46106;51.468;5.814;2022-09-24T03:29:18;91.82;;;42.28;;
60243;SDS011;46106;51.468;5.814;2022-09-24T03:32:13;87.18;;;41.78;;
60243;SDS011;46106;51.468;5.814;2022-09-24T03:34:41;97.93;;;42.58;;
60243;SDS011;46106;51.468;5.814;2022-09-24T03:37:12;90.13;;;41.55;;
60243;SDS011;46106;51.468;5.814;2022-09-24T03:39:56;89.00;;;41.42;;
60243;SDS011;46106;51.468;5.814;2022-09-24T03:42:22;92.13;;;40.25;;
60243;SDS011;46106;51.468;5.814;2022-09-24T03:44:48;96.82;;;43.28;;
60243;SDS011;46106;51.468;5.814;2022-09-24T03:47:15;95.20;;;42.38;;
60243;SDS011;46106;51.468;5.814;2022-09-24T03:49:45;89.38;;;40.92;;
60243;SDS011;46106;51.468;5.814;2022-09-24T03:52:14;92.65;;;42.47;;
60243;SDS011;46106;51.468;5.814;2022-09-24T03:54:50;88.82;;;42.78;;
60243;SDS011;46106;51.468;5.814;2022-09-24T03:57:23;87.30;;;42.33;;
60243;SDS011;46106;51.468;5.814;2022-09-24T03:59:52;90.03;;;42.10;;
60243;SDS011;46106;51.468;5.814;2022-09-24T04:02:18;89.18;;;40.50;;
60243;SDS011;46106;51.468;5.814;2022-09-24T04:04:49;94.60;;;41.33;;
60243;SDS011;46106;51.468;5.814;2022-09-24T04:07:25;87.60;;;41.80;;
60243;SDS011;46106;51.468;5.814;2022-09-24T04:10:03;86.75;;;41.08;;
60243;SDS011;46106;51.468;5.814;2022-09-24T04:12:41;92.40;;;41.88;;
60243;SDS011;46106;51.468;5.814;2022-09-24T04:15:09;90.65;;;41.80;;
60243;SDS011;46106;51.468;5.814;2022-09-24T04:17:36;93.57;;;42.22;;
60243;SDS011;46106;51.468;5.814;2022-09-24T04:20:17;91.00;;;42.25;;
60243;SDS011;46106;51.468;5.814;2022-09-24T04:22:49;86.15;;;40.00;;
60243;SDS011;46106;51.468;5.814;2022-09-24T04:25:28;94.95;;;41.88;;
60243;SDS011;46106;51.468;5.814;2022-09-24T04:28:05;95.85;;;44.67;;
60243;SDS011;46106;51.468;5.814;2022-09-24T04:30:33;93.72;;;42.38;;
60243;SDS011;46106;51.468;5.814;2022-09-24T04:33:05;83.57;;;40.83;;
60243;SDS011;46106;51.468;5.814;2022-09-24T04:35:45;96.97;;;44.17;;
60243;SDS011;46106;51.468;5.814;2022-09-24T04:38:21;97.43;;;44.03;;
60243;SDS011;46106;51.468;5.814;2022-09-24T04:40:48;96.40;;;44.17;;
60243;SDS011;46106;51.468;5.814;2022-09-24T04:45:51;103.40;;;44.42;;
60243;SDS011;46106;51.468;5.814;2022-09-24T04:48:21;101.95;;;45.08;;
60243;SDS011;46106;51.468;5.814;2022-09-24T04:50:48;95.60;;;44.85;;
60243;SDS011;46106;51.468;5.814;2022-09-24T04:53:26;89.25;;;41.78;;
60243;SDS011;46106;51.468;5.814;2022-09-24T04:55:53;98.75;;;41.30;;
60243;SDS011;46106;51.468;5.814;2022-09-24T04:58:31;99.85;;;40.60;;
60243;SDS011;46106;51.468;5.814;2022-09-24T05:01:02;95.40;;;43.15;;
60243;SDS011;46106;51.468;5.814;2022-09-24T05:03:28;96.95;;;42.20;;
60243;SDS011;46106;51.468;5.814;2022-09-24T05:05:56;88.90;;;41.65;;
60243;SDS011;46106;51.468;5.814;2022-09-24T05:08:22;95.22;;;41.17;;
60243;SDS011;46106;51.468;5.814;2022-09-24T05:10:53;101.25;;;44.20;;
60243;SDS011;46106;51.468;5.814;2022-09-24T05:13:25;84.07;;;39.88;;
60243;SDS011;46106;51.468;5.814;2022-09-24T05:15:53;86.35;;;42.13;;
60243;SDS011;46106;51.468;5.814;2022-09-24T05:18:25;89.95;;;41.22;;
60243;SDS011;46106;51.468;5.814;2022-09-24T05:20:56;92.78;;;44.05;;
60243;SDS011;46106;51.468;5.814;2022-09-24T05:23:28;90.28;;;40.20;;
60243;SDS011;46106;51.468;5.814;2022-09-24T05:25:54;90.97;;;41.75;;
60243;SDS011;46106;51.468;5.814;2022-09-24T05:28:51;132.75;;;44.25;;
60243;SDS011;46106;51.468;5.814;2022-09-24T05:31:19;103.18;;;43.65;;
60243;SDS011;46106;51.468;5.814;2022-09-24T05:33:46;96.13;;;43.25;;
60243;SDS011;46106;51.468;5.814;2022-09-24T05:36:26;94.03;;;44.42;;
60243;SDS011;46106;51.468;5.814;2022-09-24T05:38:53;106.45;;;43.75;;
60243;SDS011;46106;51.468;5.814;2022-09-24T05:41:19;102.63;;;44.60;;
60243;SDS011;46106;51.468;5.814;2022-09-24T05:43:50;105.38;;;47.67;;
60243;SDS011;46106;51.468;5.814;2022-09-24T05:46:21;118.47;;;47.47;;
60243;SDS011;46106;51.468;5.814;2022-09-24T05:48:48;109.68;;;47.80;;
60243;SDS011;46106;51.468;5.814;2022-09-24T05:51:17;98.63;;;44.65;;
60243;SDS011;46106;51.468;5.814;2022-09-24T05:53:45;109.75;;;48.90;;
60243;SDS011;46106;51.468;5.814;2022-09-24T05:56:11;105.93;;;46.70;;
60243;SDS011;46106;51.468;5.814;2022-09-24T05:58:48;103.80;;;46.63;;
60243;SDS011;46106;51.468;5.814;2022-09-24T06:01:16;108.38;;;47.58;;
60243;SDS011;46106;51.468;5.814;2022-09-24T06:03:44;110.45;;;48.78;;
60243;SDS011;46106;51.468;5.814;2022-09-24T06:06:15;115.97;;;48.17;;
60243;SDS011;46106;51.468;5.814;2022-09-24T06:08:48;105.63;;;46.42;;
60243;SDS011;46106;51.468;5.814;2022-09-24T06:11:26;115.32;;;47.88;;
60243;SDS011;46106;51.468;5.814;2022-09-24T06:14:05;120.05;;;49.58;;
60243;SDS011;46106;51.468;5.814;2022-09-24T06:16:31;106.63;;;47.20;;
60243;SDS011;46106;51.468;5.814;2022-09-24T06:18:59;94.63;;;43.38;;
60243;SDS011;46106;51.468;5.814;2022-09-24T06:21:30;93.18;;;42.58;;
60243;SDS011;46106;51.468;5.814;2022-09-24T06:24:04;95.32;;;43.33;;
60243;SDS011;46106;51.468;5.814;2022-09-24T06:26:40;94.60;;;42.97;;
60243;SDS011;46106;51.468;5.814;2022-09-24T06:29:10;91.90;;;43.60;;
60243;SDS011;46106;51.468;5.814;2022-09-24T06:31:49;97.45;;;43.28;;
60243;SDS011;46106;51.468;5.814;2022-09-24T06:34:20;85.63;;;41.20;;
60243;SDS011;46106;51.468;5.814;2022-09-24T06:36:52;104.53;;;43.60;;
60243;SDS011;46106;51.468;5.814;2022-09-24T06:39:27;93.43;;;43.00;;
60243;SDS011;46106;51.468;5.814;2022-09-24T06:41:58;103.80;;;44.10;;
60243;SDS011;46106;51.468;5.814;2022-09-24T06:44:27;115.25;;;45.80;;
60243;SDS011;46106;51.468;5.814;2022-09-24T06:46:53;86.10;;;43.05;;
60243;SDS011;46106;51.468;5.814;2022-09-24T06:49:25;92.20;;;41.92;;
60243;SDS011;46106;51.468;5.814;2022-09-24T06:51:54;97.97;;;41.97;;
60243;SDS011;46106;51.468;5.814;2022-09-24T06:54:35;94.18;;;42.90;;
60243;SDS011;46106;51.468;5.814;2022-09-24T06:57:06;97.13;;;42.10;;
60243;SDS011;46106;51.468;5.814;2022-09-24T06:59:44;88.13;;;39.85;;
60243;SDS011;46106;51.468;5.814;2022-09-24T07:02:16;92.57;;;40.63;;
60243;SDS011;46106;51.468;5.814;2022-09-24T07:04:44;112.05;;;43.72;;
60243;SDS011;46106;51.468;5.814;2022-09-24T07:07:11;90.70;;;40.85;;
60243;SDS011;46106;51.468;5.814;2022-09-24T07:10:06;91.40;;;40.30;;
60243;SDS011;46106;51.468;5.814;2022-09-24T07:12:43;94.15;;;42.05;;
60243;SDS011;46106;51.468;5.814;2022-09-24T07:15:12;102.28;;;43.55;;
60243;SDS011;46106;51.468;5.814;2022-09-24T07:17:42;88.68;;;41.33;;
60243;SDS011;46106;51.468;5.814;2022-09-24T07:20:08;90.35;;;41.72;;
60243;SDS011;46106;51.468;5.814;2022-09-24T07:22:39;79.57;;;40.00;;
60243;SDS011;46106;51.468;5.814;2022-09-24T07:25:15;85.70;;;40.83;;
60243;SDS011;46106;51.468;5.814;2022-09-24T07:27:51;96.57;;;41.53;;
60243;SDS011;46106;51.468;5.814;2022-09-24T07:30:17;81.95;;;37.67;;
60243;SDS011;46106;51.468;5.814;2022-09-24T07:32:54;80.97;;;37.80;;
60243;SDS011;46106;51.468;5.814;2022-09-24T07:35:26;97.00;;;40.67;;
60243;SDS011;46106;51.468;5.814;2022-09-24T07:38:03;84.32;;;37.70;;
60243;SDS011;46106;51.468;5.814;2022-09-24T07:40:33;82.22;;;37.05;;
60243;SDS011;46106;51.468;5.814;2022-09-24T07:43:02;82.13;;;40.15;;
60243;SDS011;46106;51.468;5.814;2022-09-24T07:45:39;82.30;;;35.35;;
60243;SDS011;46106;51.468;5.814;2022-09-24T07:48:10;85.95;;;37.65;;
60243;SDS011;46106;51.468;5.814;2022-09-24T07:50:38;77.57;;;35.05;;
60243;SDS011;46106;51.468;5.814;2022-09-24T07:55:40;73.00;;;32.88;;
60243;SDS011;46106;51.468;5.814;2022-09-24T07:58:10;63.22;;;31.40;;
60243;SDS011;46106;51.468;5.814;2022-09-24T08:00:37;73.60;;;34.20;;
60243;SDS011;46106;51.468;5.814;2022-09-24T08:03:19;80.90;;;35.70;;
60243;SDS011;46106;51.468;5.814;2022-09-24T08:05:47;73.60;;;34.33;;
60243;SDS011;46106;51.468;5.814;2022-09-24T08:08:16;72.25;;;34.20;;
60243;SDS011;46106;51.468;5.814;2022-09-24T08:10:46;71.22;;;34.22;;
60243;SDS011;46106;51.468;5.814;2022-09-24T08:13:13;76.40;;;34.70;;
60243;SDS011;46106;51.468;5.814;2022-09-24T08:15:42;86.28;;;35.20;;
60243;SDS011;46106;51.468;5.814;2022-09-24T08:18:15;82.15;;;34.75;;
60243;SDS011;46106;51.468;5.814;2022-09-24T08:20:45;83.47;;;36.67;;
60243;SDS011;46106;51.468;5.814;2022-09-24T08:23:24;73.88;;;34.72;;
60243;SDS011;46106;51.468;5.814;2022-09-24T08:25:56;74.18;;;34.85;;
60243;SDS011;46106;51.468;5.814;2022-09-24T08:28:27;83.78;;;35.03;;
60243;SDS011;46106;51.468;5.814;2022-09-24T08:30:56;81.38;;;34.05;;
60243;SDS011;46106;51.468;5.814;2022-09-24T08:33:37;75.78;;;33.95;;
60243;SDS011;46106;51.468;5.814;2022-09-24T08:36:07;74.85;;;32.40;;
60243;SDS011;46106;51.468;5.814;2022-09-24T08:38:46;70.68;;;34.22;;
60243;SDS011;46106;51.468;5.814;2022-09-24T08:44:02;69.55;;;32.05;;
60243;SDS011;46106;51.468;5.814;2022-09-24T08:46:43;74.47;;;34.22;;
60243;SDS011;46106;51.468;5.814;2022-09-24T08:49:36;78.85;;;33.90;;
60243;SDS011;46106;51.468;5.814;2022-09-24T08:55:10;102.43;;;35.17;;
60243;SDS011;46106;51.468;5.814;2022-09-24T08:57:48;90.63;;;32.53;;
60243;SDS011;46106;51.468;5.814;2022-09-24T09:00:50;79.82;;;35.22;;
60243;SDS011;46106;51.468;5.814;2022-09-24T09:09:07;67.90;;;31.50;;
60243;SDS011;46106;51.468;5.814;2022-09-24T09:11:42;82.53;;;33.78;;
60243;SDS011;46106;51.468;5.814;2022-09-24T09:14:22;69.20;;;33.13;;
60243;SDS011;46106;51.468;5.814;2022-09-24T09:20:18;63.13;;;31.73;;
60243;SDS011;46106;51.468;5.814;2022-09-24T09:22:56;73.10;;;30.65;;
60243;SDS011;46106;51.468;5.814;2022-09-24T09:28:12;67.97;;;30.08;;
60243;SDS011;46106;51.468;5.814;2022-09-24T09:30:58;74.93;;;32.35;;
60243;SDS011;46106;51.468;5.814;2022-09-24T09:40:23;64.38;;;28.52;;
60243;SDS011;46106;51.468;5.814;2022-09-24T09:42:58;58.45;;;29.25;;
60243;SDS011;46106;51.468;5.814;2022-09-24T09:45:38;66.28;;;29.95;;
60243;SDS011;46106;51.468;5.814;2022-09-24T09:48:38;58.38;;;29.05;;
60243;SDS011;46106;51.468;5.814;2022-09-24T09:51:41;67.78;;;29.75;;
60243;SDS011;46106;51.468;5.814;2022-09-24T09:54:20;71.95;;;30.77;;
60243;SDS011;46106;51.468;5.814;2022-09-24T09:56:49;62.50;;;28.58;;
60243;SDS011;46106;51.468;5.814;2022-09-24T09:59:20;65.35;;;29.02;;
60243;SDS011;46106;51.468;5.814;2022-09-24T10:01:49;57.08;;;27.58;;
60243;SDS011;46106;51.468;5.814;2022-09-24T10:07:15;61.40;;;27.58;;
60243;SDS011;46106;51.468;5.814;2022-09-24T10:09:56;68.30;;;29.55;;
60243;SDS011;46106;51.468;5.814;2022-09-24T10:12:27;67.60;;;29.70;;
60243;SDS011;46106;51.468;5.814;2022-09-24T10:15:11;67.13;;;30.83;;
60243;SDS011;46106;51.468;5.814;2022-09-24T10:17:51;60.30;;;29.50;;
60243;SDS011;46106;51.468;5.814;2022-09-24T10:20:32;59.38;;;27.92;;
60243;SDS011;46106;51.468;5.814;2022-09-24T10:23:03;58.05;;;26.83;;
60243;SDS011;46106;51.468;5.814;2022-09-24T10:25:40;60.03;;;27.60;;
60243;SDS011;46106;51.468;5.814;2022-09-24T10:28:40;56.35;;;27.75;;
60243;SDS011;46106;51.468;5.814;2022-09-24T10:31:34;56.70;;;28.58;;
60243;SDS011;46106;51.468;5.814;2022-09-24T10:34:03;62.45;;;30.73;;
60243;SDS011;46106;51.468;5.814;2022-09-24T10:36:50;59.45;;;30.15;;
60243;SDS011;46106;51.468;5.814;2022-09-24T10:39:33;67.05;;;31.70;;
60243;SDS011;46106;51.468;5.814;2022-09-24T10:42:25;58.03;;;28.08;;
60243;SDS011;46106;51.468;5.814;2022-09-24T10:44:54;46.93;;;24.50;;
60243;SDS011;46106;51.468;5.814;2022-09-24T10:50:34;60.35;;;27.13;;
60243;SDS011;46106;51.468;5.814;2022-09-24T10:53:55;51.22;;;26.00;;
60243;SDS011;46106;51.468;5.814;2022-09-24T10:56:51;57.92;;;25.75;;
60243;SDS011;46106;51.468;5.814;2022-09-24T11:04:54;46.67;;;25.77;;
60243;SDS011;46106;51.468;5.814;2022-09-24T11:18:55;44.30;;;23.25;;
60243;SDS011;46106;51.468;5.814;2022-09-24T11:27:07;43.67;;;21.48;;
60243;SDS011;46106;51.468;5.814;2022-09-24T11:35:46;42.72;;;20.58;;
60243;SDS011;46106;51.468;5.814;2022-09-24T11:43:54;46.58;;;21.83;;
60243;SDS011;46106;51.468;5.814;2022-09-24T11:52:19;39.63;;;19.15;;
60243;SDS011;46106;51.468;5.814;2022-09-24T11:55:14;39.97;;;19.70;;
60243;SDS011;46106;51.468;5.814;2022-09-24T12:00:26;41.92;;;18.98;;
60243;SDS011;46106;51.468;5.814;2022-09-24T12:03:05;45.78;;;20.77;;
60243;SDS011;46106;51.468;5.814;2022-09-24T12:06:09;36.65;;;17.30;;
60243;SDS011;46106;51.468;5.814;2022-09-24T12:08:45;37.92;;;18.98;;
60243;SDS011;46106;51.468;5.814;2022-09-24T12:11:38;31.80;;;16.55;;
60243;SDS011;46106;51.468;5.814;2022-09-24T12:16:52;29.60;;;16.00;;
60243;SDS011;46106;51.468;5.814;2022-09-24T12:19:35;33.03;;;15.07;;
60243;SDS011;46106;51.468;5.814;2022-09-24T12:22:32;30.98;;;14.45;;
60243;SDS011;46106;51.468;5.814;2022-09-24T12:25:10;40.47;;;15.77;;
60243;SDS011;46106;51.468;5.814;2022-09-24T12:27:53;28.50;;;15.07;;
60243;SDS011;46106;51.468;5.814;2022-09-24T12:30:33;27.70;;;14.10;;
60243;SDS011;46106;51.468;5.814;2022-09-24T12:33:39;26.67;;;14.43;;
60243;SDS011;46106;51.468;5.814;2022-09-24T12:39:27;31.63;;;16.42;;
60243;SDS011;46106;51.468;5.814;2022-09-24T12:42:00;39.53;;;16.45;;
60243;SDS011;46106;51.468;5.814;2022-09-24T12:44:52;28.08;;;15.07;;
60243;SDS011;46106;51.468;5.814;2022-09-24T12:47:32;32.50;;;14.75;;
60243;SDS011;46106;51.468;5.814;2022-09-24T12:50:23;28.25;;;13.35;;
60243;SDS011;46106;51.468;5.814;2022-09-24T12:53:16;25.73;;;13.15;;
60243;SDS011;46106;51.468;5.814;2022-09-24T12:55:51;26.25;;;13.10;;
60243;SDS011;46106;51.468;5.814;2022-09-24T12:58:28;23.88;;;11.57;;
60243;SDS011;46106;51.468;5.814;2022-09-24T13:04:04;22.45;;;11.32;;
60243;SDS011;46106;51.468;5.814;2022-09-24T13:06:51;21.50;;;11.98;;
60243;SDS011;46106;51.468;5.814;2022-09-24T13:09:33;30.10;;;15.98;;
60243;SDS011;46106;51.468;5.814;2022-09-24T13:14:39;40.58;;;22.33;;
60243;SDS011;46106;51.468;5.814;2022-09-24T13:17:15;32.38;;;19.88;;
60243;SDS011;46106;51.468;5.814;2022-09-24T13:19:45;35.95;;;20.35;;
60243;SDS011;46106;51.468;5.814;2022-09-24T13:22:27;33.42;;;20.02;;
60243;SDS011;46106;51.468;5.814;2022-09-24T13:27:41;43.05;;;22.15;;
60243;SDS011;46106;51.468;5.814;2022-09-24T13:32:50;36.75;;;21.70;;
60243;SDS011;46106;51.468;5.814;2022-09-24T13:35:25;39.38;;;23.38;;
60243;SDS011;46106;51.468;5.814;2022-09-24T13:38:19;41.20;;;23.88;;
60243;SDS011;46106;51.468;5.814;2022-09-24T13:40:55;47.92;;;23.05;;
60243;SDS011;46106;51.468;5.814;2022-09-24T13:43:50;43.25;;;22.60;;
60243;SDS011;46106;51.468;5.814;2022-09-24T13:46:20;43.67;;;23.13;;
60243;SDS011;46106;51.468;5.814;2022-09-24T13:48:49;38.53;;;21.33;;
60243;SDS011;46106;51.468;5.814;2022-09-24T13:51:22;34.63;;;20.00;;
60243;SDS011;46106;51.468;5.814;2022-09-24T13:54:17;39.10;;;21.90;;
60243;SDS011;46106;51.468;5.814;2022-09-24T13:57:26;54.55;;;26.20;;
60243;SDS011;46106;51.468;5.814;2022-09-24T14:02:52;60.70;;;31.08;;
60243;SDS011;46106;51.468;5.814;2022-09-24T14:05:34;65.15;;;29.67;;
60243;SDS011;46106;51.468;5.814;2022-09-24T14:08:10;53.38;;;28.90;;
60243;SDS011;46106;51.468;5.814;2022-09-24T14:10:43;49.33;;;26.83;;
60243;SDS011;46106;51.468;5.814;2022-09-24T14:18:21;51.42;;;26.90;;
60243;SDS011;46106;51.468;5.814;2022-09-24T14:20:50;49.30;;;26.42;;
60243;SDS011;46106;51.468;5.814;2022-09-24T14:23:39;49.38;;;23.55;;
60243;SDS011;46106;51.468;5.814;2022-09-24T14:26:47;45.13;;;23.33;;
60243;SDS011;46106;51.468;5.814;2022-09-24T14:29:19;39.38;;;20.92;;
60243;SDS011;46106;51.468;5.814;2022-09-24T14:32:15;41.53;;;19.15;;
60243;SDS011;46106;51.468;5.814;2022-09-24T14:38:05;41.03;;;17.63;;
60243;SDS011;46106;51.468;5.814;2022-09-24T14:40:47;30.83;;;14.90;;
60243;SDS011;46106;51.468;5.814;2022-09-24T14:43:23;21.42;;;12.65;;
60243;SDS011;46106;51.468;5.814;2022-09-24T14:46:04;22.92;;;13.00;;
60243;SDS011;46106;51.468;5.814;2022-09-24T14:48:42;21.77;;;12.75;;
60243;SDS011;46106;51.468;5.814;2022-09-24T14:51:26;23.27;;;12.95;;
60243;SDS011;46106;51.468;5.814;2022-09-24T14:53:59;26.55;;;13.85;;
60243;SDS011;46106;51.468;5.814;2022-09-24T14:56:29;28.10;;;12.07;;
60243;SDS011;46106;51.468;5.814;2022-09-24T14:59:12;25.92;;;12.07;;
60243;SDS011;46106;51.468;5.814;2022-09-24T15:01:43;21.73;;;12.52;;
60243;SDS011;46106;51.468;5.814;2022-09-24T15:04:21;26.52;;;12.80;;
60243;SDS011;46106;51.468;5.814;2022-09-24T15:06:52;23.65;;;14.15;;
60243;SDS011;46106;51.468;5.814;2022-09-24T15:09:28;29.20;;;15.13;;
60243;SDS011;46106;51.468;5.814;2022-09-24T15:12:07;26.58;;;14.70;;
60243;SDS011;46106;51.468;5.814;2022-09-24T15:14:41;30.13;;;16.88;;
60243;SDS011;46106;51.468;5.814;2022-09-24T15:17:20;37.65;;;17.20;;
60243;SDS011;46106;51.468;5.814;2022-09-24T15:19:53;32.00;;;17.08;;
60243;SDS011;46106;51.468;5.814;2022-09-24T15:22:26;36.72;;;19.00;;
60243;SDS011;46106;51.468;5.814;2022-09-24T15:24:55;49.10;;;20.27;;
60243;SDS011;46106;51.468;5.814;2022-09-24T15:27:26;39.05;;;20.27;;
60243;SDS011;46106;51.468;5.814;2022-09-24T15:30:04;38.45;;;19.80;;
60243;SDS011;46106;51.468;5.814;2022-09-24T15:32:34;38.05;;;17.95;;
60243;SDS011;46106;51.468;5.814;2022-09-24T15:35:17;32.15;;;18.83;;
60243;SDS011;46106;51.468;5.814;2022-09-24T15:37:45;37.03;;;19.40;;
60243;SDS011;46106;51.468;5.814;2022-09-24T15:40:17;30.63;;;17.63;;
60243;SDS011;46106;51.468;5.814;2022-09-24T15:45:28;32.78;;;17.00;;
60243;SDS011;46106;51.468;5.814;2022-09-24T15:48:04;36.22;;;18.50;;
60243;SDS011;46106;51.468;5.814;2022-09-24T15:50:50;32.67;;;18.17;;
60243;SDS011;46106;51.468;5.814;2022-09-24T15:53:27;35.63;;;19.63;;
60243;SDS011;46106;51.468;5.814;2022-09-24T15:56:07;36.08;;;19.52;;
60243;SDS011;46106;51.468;5.814;2022-09-24T15:58:36;40.78;;;21.33;;
60243;SDS011;46106;51.468;5.814;2022-09-24T16:01:13;39.67;;;20.48;;
60243;SDS011;46106;51.468;5.814;2022-09-24T16:03:52;42.33;;;23.42;;
60243;SDS011;46106;51.468;5.814;2022-09-24T16:06:31;49.38;;;24.83;;
60243;SDS011;46106;51.468;5.814;2022-09-24T16:11:30;52.20;;;27.00;;
60243;SDS011;46106;51.468;5.814;2022-09-24T16:13:58;54.97;;;28.88;;
60243;SDS011;46106;51.468;5.814;2022-09-24T16:16:26;63.83;;;32.75;;
60243;SDS011;46106;51.468;5.814;2022-09-24T16:18:57;59.67;;;31.65;;
60243;SDS011;46106;51.468;5.814;2022-09-24T16:21:23;58.80;;;31.55;;
60243;SDS011;46106;51.468;5.814;2022-09-24T16:23:53;68.18;;;33.78;;
60243;SDS011;46106;51.468;5.814;2022-09-24T16:26:32;62.88;;;32.60;;
60243;SDS011;46106;51.468;5.814;2022-09-24T16:29:19;53.63;;;29.65;;
60243;SDS011;46106;51.468;5.814;2022-09-24T16:31:51;53.20;;;28.02;;
60243;SDS011;46106;51.468;5.814;2022-09-24T16:34:22;52.72;;;28.17;;
60243;SDS011;46106;51.468;5.814;2022-09-24T16:36:53;54.63;;;26.60;;
60243;SDS011;46106;51.468;5.814;2022-09-24T16:39:38;55.47;;;28.38;;
60243;SDS011;46106;51.468;5.814;2022-09-24T16:42:08;52.25;;;28.95;;
60243;SDS011;46106;51.468;5.814;2022-09-24T16:44:41;46.17;;;21.95;;
60243;SDS011;46106;51.468;5.814;2022-09-24T16:47:09;32.30;;;18.90;;
60243;SDS011;46106;51.468;5.814;2022-09-24T16:49:38;32.33;;;17.13;;
60243;SDS011;46106;51.468;5.814;2022-09-24T16:52:17;28.63;;;16.15;;
60243;SDS011;46106;51.468;5.814;2022-09-24T16:54:43;34.10;;;17.30;;
60243;SDS011;46106;51.468;5.814;2022-09-24T16:57:15;27.08;;;16.08;;
60243;SDS011;46106;51.468;5.814;2022-09-24T16:59:45;29.85;;;16.25;;
60243;SDS011;46106;51.468;5.814;2022-09-24T17:02:30;31.67;;;17.10;;
60243;SDS011;46106;51.468;5.814;2022-09-24T17:04:59;32.08;;;16.30;;
60243;SDS011;46106;51.468;5.814;2022-09-24T17:07:30;28.58;;;16.33;;
60243;SDS011;46106;51.468;5.814;2022-09-24T17:09:57;29.45;;;15.52;;
60243;SDS011;46106;51.468;5.814;2022-09-24T17:12:50;29.90;;;15.73;;
60243;SDS011;46106;51.468;5.814;2022-09-24T17:15:30;24.63;;;13.60;;
60243;SDS011;46106;51.468;5.814;2022-09-24T17:17:58;31.13;;;13.85;;
60243;SDS011;46106;51.468;5.814;2022-09-24T17:20:25;31.58;;;14.80;;
60243;SDS011;46106;51.468;5.814;2022-09-24T17:23:00;23.45;;;14.90;;